createdAt,value
2023-05-16T00:00:17.255Z,2.78
2023-05-16T00:02:47.928Z,2.47
2023-05-16T00:05:16.346Z,2.67
2023-05-16T00:07:45.177Z,2.65
2023-05-16T00:10:13.542Z,3.35
2023-05-16T00:12:41.783Z,3.30
2023-05-16T00:15:14.018Z,3.05
2023-05-16T00:17:43.730Z,2.80
2023-05-16T00:20:14.322Z,2.75
2023-05-16T00:22:42.769Z,3.08
2023-05-16T00:25:10.786Z,3.20
2023-05-16T00:27:38.747Z,2.72
2023-05-16T00:30:07.741Z,3.67
2023-05-16T00:32:36.647Z,2.67
2023-05-16T00:35:05.017Z,3.00
2023-05-16T00:37:34.341Z,3.55
2023-05-16T00:40:02.160Z,3.00
2023-05-16T00:42:30.011Z,3.92
2023-05-16T00:44:57.953Z,4.05
2023-05-16T00:47:25.909Z,3.13
2023-05-16T00:49:53.980Z,3.13
2023-05-16T00:52:21.853Z,3.78
2023-05-16T00:54:51.827Z,3.47
2023-05-16T00:57:20.007Z,3.60
2023-05-16T00:59:48.389Z,3.80
2023-05-16T01:02:16.991Z,3.50
2023-05-16T01:04:45.935Z,4.35
2023-05-16T01:07:13.736Z,5.43
2023-05-16T01:09:41.994Z,4.30
2023-05-16T01:12:17.440Z,4.80
2023-05-16T01:14:52.859Z,5.03
2023-05-16T01:17:24.744Z,4.32
2023-05-16T01:20:12.205Z,8.18
2023-05-16T01:23:02.740Z,6.70
2023-05-16T01:25:41.121Z,5.50
2023-05-16T01:28:11.190Z,3.78
2023-05-16T01:30:41.283Z,3.60
2023-05-16T01:33:09.387Z,3.75
2023-05-16T01:35:54.996Z,3.55
2023-05-16T01:38:28.642Z,4.00
2023-05-16T01:41:05.552Z,3.20
2023-05-16T01:43:38.300Z,3.40
2023-05-16T01:46:11.823Z,4.28
2023-05-16T01:48:48.626Z,3.15
2023-05-16T01:51:16.849Z,3.63
2023-05-16T01:53:45.467Z,3.97
2023-05-16T01:56:17.126Z,3.60
2023-05-16T01:58:47.942Z,3.20
2023-05-16T02:01:15.761Z,4.13
2023-05-16T02:03:43.631Z,3.92
2023-05-16T02:06:11.531Z,4.70
2023-05-16T02:08:39.292Z,3.78
2023-05-16T02:11:07.148Z,4.00
2023-05-16T02:13:34.947Z,3.70
2023-05-16T02:16:04.304Z,4.47
2023-05-16T02:18:32.140Z,4.47
2023-05-16T02:21:00.331Z,3.70
2023-05-16T02:23:28.205Z,4.18
2023-05-16T02:25:56.043Z,4.30
2023-05-16T02:28:23.788Z,3.95
2023-05-16T02:30:58.213Z,4.25
2023-05-16T02:33:28.144Z,3.95
2023-05-16T02:35:56.183Z,4.07
2023-05-16T02:38:23.968Z,3.80
2023-05-16T02:40:51.767Z,3.88
2023-05-16T02:43:19.588Z,4.22
2023-05-16T02:45:47.418Z,4.15
2023-05-16T02:48:15.265Z,4.35
2023-05-16T02:50:44.419Z,3.72
2023-05-16T02:53:14.157Z,3.75
2023-05-16T02:55:42.042Z,3.97
2023-05-16T02:58:09.808Z,3.80
2023-05-16T03:00:37.949Z,3.55
2023-05-16T03:03:05.867Z,4.15
2023-05-16T03:05:33.616Z,4.40
2023-05-16T03:08:03.154Z,4.25
2023-05-16T03:10:34.058Z,3.80
2023-05-16T03:13:01.932Z,3.72
2023-05-16T03:15:29.821Z,3.67
2023-05-16T03:17:57.821Z,5.80
2023-05-16T03:20:25.591Z,3.55
2023-05-16T03:22:53.430Z,4.00
2023-05-16T03:25:22.734Z,4.28
2023-05-16T03:27:50.497Z,3.67
2023-05-16T03:30:18.406Z,3.88
2023-05-16T03:32:46.450Z,3.88
2023-05-16T03:35:14.317Z,3.15
2023-05-16T03:37:42.141Z,3.85
2023-05-16T03:40:11.275Z,3.97
2023-05-16T03:42:40.478Z,3.83
2023-05-16T03:45:09.390Z,3.70
2023-05-16T03:47:37.245Z,3.28
2023-05-16T03:50:05.854Z,4.18
2023-05-16T03:52:33.708Z,3.30
2023-05-16T03:55:01.982Z,3.75
2023-05-16T03:57:32.820Z,3.50
2023-05-16T04:00:02.015Z,3.13
2023-05-16T04:02:29.923Z,3.45
2023-05-16T04:04:57.790Z,3.60
2023-05-16T04:07:25.703Z,3.40
2023-05-16T04:09:53.506Z,4.00
2023-05-16T04:12:21.751Z,3.67
2023-05-16T04:14:49.639Z,3.15
2023-05-16T04:17:18.769Z,3.10
2023-05-16T04:19:46.483Z,3.58
2023-05-16T04:22:14.231Z,3.63
2023-05-16T04:24:42.130Z,3.22
2023-05-16T04:27:09.950Z,3.58
2023-05-16T04:29:38.082Z,3.75
2023-05-16T04:32:07.628Z,3.70
2023-05-16T04:34:39.822Z,3.45
2023-05-16T04:37:09.458Z,3.28
2023-05-16T04:39:37.962Z,2.92
2023-05-16T04:42:07.429Z,3.03
2023-05-16T04:44:35.711Z,3.45
2023-05-16T04:47:03.533Z,3.00
2023-05-16T04:49:31.315Z,3.28
2023-05-16T04:52:00.490Z,3.40
2023-05-16T04:54:28.414Z,3.20
2023-05-16T04:56:57.316Z,3.10
2023-05-16T04:59:25.104Z,3.40
2023-05-16T05:01:52.950Z,3.35
2023-05-16T05:04:20.818Z,3.60
2023-05-16T05:06:48.609Z,3.72
2023-05-16T05:09:17.950Z,3.17
2023-05-16T05:11:46.457Z,3.47
2023-05-16T05:14:14.209Z,3.78
2023-05-16T05:16:41.969Z,3.60
2023-05-16T05:19:10.011Z,3.20
2023-05-16T05:21:38.006Z,3.05
2023-05-16T05:24:06.316Z,3.03
2023-05-16T05:26:35.597Z,3.47
2023-05-16T05:29:05.851Z,3.30
2023-05-16T05:31:35.072Z,3.28
2023-05-16T05:34:03.607Z,2.95
2023-05-16T05:36:31.611Z,2.97
2023-05-16T05:38:59.327Z,2.90
2023-05-16T05:41:27.393Z,3.30
2023-05-16T05:43:56.495Z,3.10
2023-05-16T05:46:25.725Z,2.83
2023-05-16T05:48:53.767Z,3.30
2023-05-16T05:51:21.654Z,3.50
2023-05-16T05:53:50.000Z,2.97
2023-05-16T05:56:27.535Z,3.28
2023-05-16T05:58:56.843Z,3.13
2023-05-16T06:01:25.007Z,3.25
2023-05-16T06:03:52.933Z,3.45
2023-05-16T06:06:20.874Z,2.88
2023-05-16T06:08:48.881Z,3.17
2023-05-16T06:11:16.686Z,3.08
2023-05-16T06:13:44.480Z,3.90
2023-05-16T06:16:13.881Z,3.20
2023-05-16T06:18:42.449Z,2.88
2023-05-16T06:21:10.633Z,3.15
2023-05-16T06:23:41.818Z,2.80
2023-05-16T06:26:09.702Z,2.88
2023-05-16T06:28:40.828Z,2.90
2023-05-16T06:31:08.651Z,2.90
2023-05-16T06:33:38.204Z,2.80
2023-05-16T06:36:06.525Z,3.17
2023-05-16T06:38:34.262Z,3.03
2023-05-16T06:41:04.797Z,2.83
2023-05-16T06:43:32.673Z,3.17
2023-05-16T06:46:00.516Z,2.70
2023-05-16T06:48:28.627Z,2.97
2023-05-16T06:50:57.864Z,2.30
2023-05-16T06:53:26.074Z,2.67
2023-05-16T06:55:54.343Z,2.45
2023-05-16T06:58:22.299Z,3.22
2023-05-16T07:00:50.725Z,2.65
2023-05-16T07:03:20.547Z,2.97
2023-05-16T07:05:48.550Z,2.25
2023-05-16T07:08:17.753Z,2.50
2023-05-16T07:11:07.757Z,2.13
2023-05-16T07:13:39.338Z,2.70
2023-05-16T07:16:08.574Z,2.13
2023-05-16T07:18:37.001Z,2.35
2023-05-16T07:21:05.881Z,2.30
2023-05-16T07:23:38.132Z,2.75
2023-05-16T07:26:06.080Z,4.00
2023-05-16T07:28:33.947Z,2.30
2023-05-16T07:31:01.808Z,2.35
2023-05-16T07:33:29.665Z,1.80
2023-05-16T07:36:07.729Z,2.25
2023-05-16T07:38:45.357Z,2.53
2023-05-16T07:41:52.261Z,2.33
2023-05-16T07:44:20.262Z,2.35
2023-05-16T07:46:48.144Z,2.00
2023-05-16T07:49:30.995Z,2.38
2023-05-16T07:51:58.949Z,2.13
2023-05-16T07:54:28.341Z,2.10
2023-05-16T07:56:59.290Z,2.35
2023-05-16T07:59:27.194Z,1.90
2023-05-16T08:01:56.773Z,2.20
2023-05-16T08:04:24.759Z,1.83
2023-05-16T08:06:52.536Z,2.10
2023-05-16T08:09:20.773Z,1.98
2023-05-16T08:11:50.044Z,2.10
2023-05-16T08:14:18.773Z,1.90
2023-05-16T08:16:47.629Z,1.90
2023-05-16T08:19:15.761Z,3.85
2023-05-16T08:21:43.822Z,1.60
2023-05-16T08:24:12.215Z,1.90
2023-05-16T08:26:40.207Z,1.90
2023-05-16T08:29:09.577Z,2.00
2023-05-16T08:31:41.297Z,1.98
2023-05-16T08:34:10.370Z,1.77
2023-05-16T08:36:39.040Z,2.00
2023-05-16T08:39:07.562Z,2.20
2023-05-16T08:41:38.198Z,2.00
2023-05-16T08:44:06.581Z,2.10
2023-05-16T08:46:39.003Z,2.00
2023-05-16T08:51:38.667Z,1.98
2023-05-16T08:54:14.458Z,2.20
2023-05-16T08:56:43.298Z,2.00
2023-05-16T08:59:12.416Z,2.00
2023-05-16T09:01:42.578Z,1.90
2023-05-16T09:04:11.219Z,1.80
2023-05-16T09:06:39.194Z,2.13
2023-05-16T09:09:08.411Z,1.85
2023-05-16T09:11:43.917Z,1.98
2023-05-16T09:14:16.693Z,2.38
2023-05-16T09:17:04.151Z,2.10
2023-05-16T09:19:40.478Z,1.88
2023-05-16T09:22:10.540Z,2.22
2023-05-16T09:24:40.782Z,2.05
2023-05-16T09:27:12.283Z,1.92
2023-05-16T09:29:42.360Z,1.57
2023-05-16T09:32:14.564Z,1.70
2023-05-16T09:34:45.310Z,1.83
2023-05-16T09:37:15.429Z,1.73
2023-05-16T09:39:48.717Z,1.73
2023-05-16T09:42:16.835Z,1.90
2023-05-16T09:44:47.908Z,2.72
2023-05-16T09:47:17.615Z,2.10
2023-05-16T09:49:45.734Z,2.10
2023-05-16T09:52:14.302Z,2.42
2023-05-16T09:54:42.373Z,2.28
2023-05-16T09:57:10.562Z,2.20
2023-05-16T09:59:39.768Z,2.58
2023-05-16T10:02:08.551Z,2.20
2023-05-16T10:04:39.938Z,2.40
2023-05-16T10:07:09.832Z,2.38
2023-05-16T10:09:40.762Z,2.40
2023-05-16T10:12:14.261Z,2.20
2023-05-16T10:14:46.469Z,2.40
2023-05-16T10:17:17.169Z,2.28
2023-05-16T10:19:47.938Z,2.50
2023-05-16T10:22:17.697Z,2.17
2023-05-16T10:24:52.005Z,2.20
2023-05-16T10:27:20.379Z,2.05
2023-05-16T10:29:54.773Z,1.60
2023-05-16T10:32:25.055Z,1.48
2023-05-16T10:34:55.660Z,1.23
2023-05-16T10:37:24.645Z,1.75
2023-05-16T10:39:53.486Z,1.15
2023-05-16T10:42:22.088Z,1.40
2023-05-16T10:45:02.016Z,1.25
2023-05-16T10:47:33.244Z,1.10
2023-05-16T10:50:02.505Z,1.30
2023-05-16T10:52:35.009Z,1.20
2023-05-16T10:55:05.362Z,1.30
2023-05-16T10:57:36.775Z,1.13
2023-05-16T11:00:10.395Z,1.23
2023-05-16T11:02:42.828Z,1.35
2023-05-16T11:05:19.063Z,1.95
2023-05-16T11:08:05.414Z,1.70
2023-05-16T11:10:33.732Z,2.25
2023-05-16T11:13:08.493Z,1.35
2023-05-16T11:15:36.778Z,1.50
2023-05-16T11:18:09.023Z,1.27
2023-05-16T11:20:39.711Z,1.50
2023-05-16T11:23:21.693Z,1.60
2023-05-16T11:25:52.823Z,1.20
2023-05-16T11:28:22.113Z,1.73
2023-05-16T11:30:52.073Z,1.30
2023-05-16T11:33:20.388Z,1.30
2023-05-16T11:38:43.419Z,1.40
2023-05-16T11:41:11.617Z,1.42
2023-05-16T11:43:41.821Z,1.60
2023-05-16T11:46:12.898Z,1.33
2023-05-16T11:48:41.683Z,1.40
2023-05-16T11:51:11.876Z,1.30
2023-05-16T11:53:39.704Z,1.42
2023-05-16T11:56:09.316Z,1.48
2023-05-16T11:58:38.376Z,1.20
2023-05-16T12:01:06.743Z,1.48
2023-05-16T12:03:42.741Z,1.08
2023-05-16T12:06:12.061Z,2.42
2023-05-16T12:08:39.841Z,2.00
2023-05-16T12:11:07.718Z,1.40
2023-05-16T12:13:37.492Z,1.20
2023-05-16T12:16:06.047Z,1.30
2023-05-16T12:18:34.201Z,3.75
2023-05-16T12:21:02.272Z,1.45
2023-05-16T12:23:31.615Z,1.30
2023-05-16T12:26:01.618Z,1.40
2023-05-16T12:28:34.110Z,1.30
2023-05-16T12:31:02.151Z,1.25
2023-05-16T12:33:30.142Z,1.08
2023-05-16T12:35:59.487Z,1.00
2023-05-16T12:38:27.763Z,1.00
2023-05-16T12:41:07.689Z,1.10
2023-05-16T12:43:38.256Z,1.20
2023-05-16T12:46:12.713Z,1.50
2023-05-16T12:48:42.004Z,1.40
2023-05-16T12:51:14.823Z,1.27
2023-05-16T12:53:54.410Z,1.50
2023-05-16T12:56:31.592Z,1.40
2023-05-16T12:58:59.456Z,1.30
2023-05-16T13:01:27.513Z,1.25
2023-05-16T13:03:55.518Z,1.55
2023-05-16T13:06:23.498Z,1.40
2023-05-16T13:08:51.431Z,1.50
2023-05-16T13:11:19.901Z,1.70
2023-05-16T13:13:49.098Z,1.30
2023-05-16T13:16:17.380Z,1.60
2023-05-16T13:18:45.921Z,1.50
2023-05-16T13:21:13.837Z,1.40
2023-05-16T13:23:41.579Z,1.45
2023-05-16T13:26:09.785Z,1.48
2023-05-16T13:28:38.138Z,1.35
2023-05-16T13:31:07.813Z,1.50
2023-05-16T13:33:38.961Z,1.33
2023-05-16T13:36:09.015Z,1.48
2023-05-16T13:38:41.363Z,1.60
2023-05-16T13:41:09.269Z,1.38
2023-05-16T13:43:37.069Z,1.35
2023-05-16T13:46:05.286Z,1.77
2023-05-16T13:48:34.559Z,1.90
2023-05-16T13:51:02.480Z,1.80
2023-05-16T13:53:30.299Z,1.60
2023-05-16T13:55:58.058Z,1.60
2023-05-16T13:58:27.202Z,1.65
2023-05-16T14:00:55.071Z,1.70
2023-05-16T14:03:23.346Z,1.75
2023-05-16T14:05:52.690Z,1.77
2023-05-16T14:08:20.472Z,1.83
2023-05-16T14:10:48.216Z,1.90
2023-05-16T14:13:16.326Z,1.67
2023-05-16T14:15:44.185Z,1.90
2023-05-16T14:18:15.981Z,1.58
2023-05-16T14:20:43.887Z,1.65
2023-05-16T14:23:13.129Z,1.70
2023-05-16T14:25:41.184Z,1.73
2023-05-16T14:28:09.031Z,1.70
2023-05-16T14:30:38.712Z,2.10
2023-05-16T14:33:07.102Z,1.73
2023-05-16T14:35:34.924Z,2.10
2023-05-16T14:38:02.757Z,1.83
2023-05-16T14:40:31.937Z,1.75
2023-05-16T14:42:59.743Z,1.85
2023-05-16T14:45:27.870Z,1.88
2023-05-16T14:47:55.892Z,1.80
2023-05-16T14:50:24.850Z,1.83
2023-05-16T14:52:52.909Z,1.95
2023-05-16T14:55:21.680Z,1.90
2023-05-16T14:57:57.099Z,2.00
2023-05-16T15:00:27.707Z,1.88
2023-05-16T15:02:55.862Z,1.90
2023-05-16T15:05:25.607Z,2.05
2023-05-16T15:07:53.514Z,1.92
2023-05-16T15:10:21.394Z,2.05
2023-05-16T15:12:50.541Z,1.80
2023-05-16T15:15:18.607Z,1.88
2023-05-16T15:17:46.460Z,1.90
2023-05-16T15:20:14.448Z,2.00
2023-05-16T15:22:42.643Z,1.98
2023-05-16T15:25:11.833Z,2.00
2023-05-16T15:27:39.629Z,1.73
2023-05-16T15:30:10.929Z,1.80
2023-05-16T15:32:38.836Z,2.45
2023-05-16T15:35:07.244Z,1.90
2023-05-16T15:37:35.171Z,1.73
2023-05-16T15:40:04.524Z,1.90
2023-05-16T15:42:32.387Z,1.80
2023-05-16T15:45:00.226Z,2.10
2023-05-16T15:47:29.697Z,2.22
2023-05-16T15:49:57.582Z,2.20
2023-05-16T15:52:25.359Z,2.40
2023-05-16T15:54:53.204Z,2.50
2023-05-16T15:57:21.138Z,2.70
2023-05-16T15:59:49.056Z,2.50
2023-05-16T16:02:26.934Z,2.47
2023-05-16T16:04:56.394Z,2.30
2023-05-16T16:07:30.978Z,2.28
2023-05-16T16:10:08.089Z,2.58
2023-05-16T16:12:37.192Z,2.38
2023-05-16T16:15:09.265Z,2.30
2023-05-16T16:17:37.340Z,2.33
2023-05-16T16:20:07.737Z,2.42
2023-05-16T16:22:35.879Z,2.40
2023-05-16T16:25:03.874Z,2.22
2023-05-16T16:27:31.819Z,2.10
2023-05-16T16:29:59.653Z,2.50
2023-05-16T16:32:27.830Z,2.50
2023-05-16T16:34:56.069Z,2.30
2023-05-16T16:37:25.691Z,2.40
2023-05-16T16:39:53.521Z,2.40
2023-05-16T16:42:21.321Z,2.35
2023-05-16T16:44:51.624Z,2.10
2023-05-16T16:47:19.974Z,2.42
2023-05-16T16:49:47.896Z,2.10
2023-05-16T16:52:15.825Z,2.50
2023-05-16T16:54:45.012Z,2.30
2023-05-16T16:57:12.969Z,2.25
2023-05-16T16:59:40.960Z,2.38
2023-05-16T17:02:11.982Z,2.65
2023-05-16T17:04:40.038Z,2.25
2023-05-16T17:07:08.558Z,2.85
2023-05-16T17:09:37.032Z,2.15
2023-05-16T17:12:17.617Z,2.40
2023-05-16T17:14:46.065Z,2.28
2023-05-16T17:17:20.825Z,2.50
2023-05-16T17:19:48.780Z,2.30
2023-05-16T17:22:16.608Z,2.50
2023-05-16T17:24:45.386Z,2.22
2023-05-16T17:27:14.698Z,2.40
2023-05-16T17:29:42.568Z,2.45
2023-05-16T17:32:12.108Z,2.40
2023-05-16T17:37:24.244Z,2.40
2023-05-16T17:40:05.877Z,2.67
2023-05-16T17:42:35.451Z,2.72
2023-05-16T17:45:04.820Z,2.53
2023-05-16T17:47:33.118Z,2.97
2023-05-16T17:50:01.416Z,2.53
2023-05-16T17:52:29.482Z,2.67
2023-05-16T17:54:57.295Z,2.13
2023-05-16T17:57:25.104Z,2.50
2023-05-16T17:59:54.315Z,2.35
2023-05-16T18:02:22.134Z,2.75
2023-05-16T18:04:49.978Z,2.50
2023-05-16T18:07:17.730Z,2.50
2023-05-16T18:09:45.584Z,2.90
2023-05-16T18:12:13.419Z,2.90
2023-05-16T18:14:43.141Z,2.53
2023-05-16T18:17:14.478Z,2.28
2023-05-16T18:19:42.618Z,2.35
2023-05-16T18:22:12.321Z,2.58
2023-05-16T18:24:44.637Z,2.17
2023-05-16T18:27:12.605Z,2.35
2023-05-16T18:29:40.442Z,2.63
2023-05-16T18:32:09.095Z,2.67
2023-05-16T18:34:38.551Z,2.40
2023-05-16T18:37:08.745Z,2.30
2023-05-16T18:39:37.663Z,2.20
2023-05-16T18:42:05.566Z,2.20
2023-05-16T18:44:48.248Z,2.22
2023-05-16T18:49:46.230Z,2.30
2023-05-16T18:52:14.756Z,1.80
2023-05-16T18:54:42.805Z,2.20
2023-05-16T18:57:14.416Z,1.85
2023-05-16T18:59:42.392Z,1.90
2023-05-16T19:02:10.316Z,1.83
2023-05-16T19:04:38.450Z,2.08
2023-05-16T19:07:09.253Z,2.20
2023-05-16T19:09:39.630Z,2.50
2023-05-16T19:12:07.813Z,2.20
2023-05-16T19:14:35.973Z,2.53
2023-05-16T19:17:03.834Z,2.38
2023-05-16T19:19:32.501Z,2.30
2023-05-16T19:22:00.449Z,2.35
2023-05-16T19:24:29.731Z,2.08
2023-05-16T19:26:57.519Z,2.00
2023-05-16T19:29:25.383Z,2.30
2023-05-16T19:31:53.213Z,2.00
2023-05-16T19:34:21.478Z,2.22
2023-05-16T19:36:49.393Z,2.05
2023-05-16T19:39:17.232Z,2.20
2023-05-16T19:41:51.710Z,2.40
2023-05-16T19:44:20.153Z,2.40
2023-05-16T19:46:48.081Z,2.10
2023-05-16T19:49:26.775Z,2.20
2023-05-16T19:51:55.862Z,2.30
2023-05-16T19:54:23.807Z,2.05
2023-05-16T19:56:53.089Z,2.28
2023-05-16T19:59:22.455Z,2.30
2023-05-16T20:01:50.347Z,2.30
2023-05-16T20:04:18.263Z,2.35
2023-05-16T20:06:46.153Z,2.30
2023-05-16T20:09:14.701Z,2.10
2023-05-16T20:11:42.689Z,2.25
2023-05-16T20:14:11.895Z,2.15
2023-05-16T20:16:39.894Z,2.22
2023-05-16T20:19:16.746Z,2.67
2023-05-16T20:21:44.877Z,2.42
2023-05-16T20:24:12.825Z,2.17
2023-05-16T20:26:40.751Z,2.13
2023-05-16T20:29:08.567Z,2.10
2023-05-16T20:31:41.275Z,2.15
2023-05-16T20:34:09.191Z,2.45
2023-05-16T20:36:37.366Z,2.10
2023-05-16T20:39:09.031Z,1.88
2023-05-16T20:41:37.340Z,2.13
2023-05-16T20:44:06.891Z,2.00
2023-05-16T20:46:34.784Z,1.92
2023-05-16T20:49:04.368Z,1.92
2023-05-16T20:51:32.313Z,3.35
2023-05-16T20:54:00.576Z,7.15
2023-05-16T20:56:28.496Z,2.15
2023-05-16T20:58:56.586Z,1.80
2023-05-16T21:01:24.585Z,2.00
2023-05-16T21:03:52.576Z,2.13
2023-05-16T21:06:21.902Z,1.95
2023-05-16T21:09:04.728Z,2.05
2023-05-16T21:11:36.480Z,1.88
2023-05-16T21:14:04.783Z,2.15
2023-05-16T21:16:35.914Z,1.92
2023-05-16T21:19:04.480Z,2.10
2023-05-16T21:21:34.486Z,2.20
2023-05-16T21:24:08.294Z,2.40
2023-05-16T21:26:38.260Z,2.22
2023-05-16T21:29:10.903Z,2.45
2023-05-16T21:31:38.719Z,1.90
2023-05-16T21:34:06.658Z,2.10
2023-05-16T21:36:41.876Z,2.10
2023-05-16T21:39:09.983Z,2.10
2023-05-16T21:41:41.040Z,2.80
2023-05-16T21:44:08.931Z,2.45
2023-05-16T21:46:37.252Z,2.35
2023-05-16T21:49:05.191Z,2.45
2023-05-16T21:51:33.051Z,2.50
2023-05-16T21:54:03.323Z,2.88
2023-05-16T21:56:31.680Z,2.85
2023-05-16T21:59:01.789Z,2.70
2023-05-16T22:01:31.743Z,2.85
2023-05-16T22:03:59.908Z,2.85
2023-05-16T22:06:28.045Z,2.95
2023-05-16T22:09:05.052Z,3.35
2023-05-16T22:11:47.962Z,3.50
2023-05-16T22:14:55.450Z,3.30
2023-05-16T22:20:35.979Z,2.72
2023-05-16T22:23:19.790Z,3.08
2023-05-16T22:26:10.187Z,3.22
2023-05-16T22:29:02.950Z,2.80
2023-05-16T22:31:30.742Z,3.03
2023-05-16T22:33:58.607Z,2.92
2023-05-16T22:36:26.434Z,3.35
2023-05-16T22:38:54.247Z,2.97
2023-05-16T22:41:22.269Z,3.15
2023-05-16T22:43:51.438Z,2.90
2023-05-16T22:46:19.428Z,2.75
2023-05-16T22:48:47.300Z,2.90
2023-05-16T22:51:15.118Z,3.22
2023-05-16T22:53:42.896Z,2.95
2023-05-16T22:56:10.796Z,3.05
2023-05-16T22:58:38.623Z,2.90
2023-05-16T23:01:07.956Z,3.10
2023-05-16T23:03:36.172Z,3.20
2023-05-16T23:06:04.113Z,2.92
2023-05-16T23:08:31.932Z,2.85
2023-05-16T23:10:59.695Z,3.10
2023-05-16T23:13:27.536Z,3.03
2023-05-16T23:15:55.546Z,3.38
2023-05-16T23:18:25.033Z,3.10
2023-05-16T23:20:52.962Z,3.33
2023-05-16T23:23:20.867Z,3.42
2023-05-16T23:25:48.954Z,3.83
2023-05-16T23:28:16.807Z,3.25
2023-05-16T23:30:44.610Z,3.60
2023-05-16T23:33:12.976Z,3.85
2023-05-16T23:35:42.256Z,3.75
2023-05-16T23:38:10.068Z,3.33
2023-05-16T23:40:38.214Z,3.50
2023-05-16T23:43:05.988Z,3.40
2023-05-16T23:45:33.837Z,4.65
2023-05-16T23:48:01.710Z,4.50
2023-05-16T23:50:29.623Z,3.90
2023-05-16T23:52:58.750Z,4.55
2023-05-16T23:55:26.781Z,4.05
2023-05-16T23:57:54.674Z,4.75
